sensor_id;sensor_type;location;lat;lon;timestamp;temperature;humidity
14733;DHT22;7457;50.960;6.830;2023-12-29T00:00:34;10.00;79.90
14733;DHT22;7457;50.960;6.830;2023-12-29T00:03:00;10.10;79.70
14733;DHT22;7457;50.960;6.830;2023-12-29T00:05:25;10.10;79.70
14733;DHT22;7457;50.960;6.830;2023-12-29T00:07:52;10.10;79.30
14733;DHT22;7457;50.960;6.830;2023-12-29T00:10:18;10.10;79.40
14733;DHT22;7457;50.960;6.830;2023-12-29T00:12:44;10.20;79.30
14733;DHT22;7457;50.960;6.830;2023-12-29T00:15:10;10.10;79.40
14733;DHT22;7457;50.960;6.830;2023-12-29T00:17:36;10.10;79.50
14733;DHT22;7457;50.960;6.830;2023-12-29T00:20:06;10.10;79.70
14733;DHT22;7457;50.960;6.830;2023-12-29T00:22:34;10.00;79.90
14733;DHT22;7457;50.960;6.830;2023-12-29T00:25:00;10.00;80.00
14733;DHT22;7457;50.960;6.830;2023-12-29T00:27:25;10.00;80.00
14733;DHT22;7457;50.960;6.830;2023-12-29T00:29:51;10.00;80.10
14733;DHT22;7457;50.960;6.830;2023-12-29T00:32:16;10.00;80.00
14733;DHT22;7457;50.960;6.830;2023-12-29T00:34:42;10.10;80.00
14733;DHT22;7457;50.960;6.830;2023-12-29T00:37:07;10.10;79.80
14733;DHT22;7457;50.960;6.830;2023-12-29T00:39:33;10.10;79.50
14733;DHT22;7457;50.960;6.830;2023-12-29T00:42:05;10.20;79.20
14733;DHT22;7457;50.960;6.830;2023-12-29T00:44:31;10.20;79.20
14733;DHT22;7457;50.960;6.830;2023-12-29T00:46:57;10.30;79.00
14733;DHT22;7457;50.960;6.830;2023-12-29T00:49:22;10.30;78.90
14733;DHT22;7457;50.960;6.830;2023-12-29T00:51:48;10.30;78.70
14733;DHT22;7457;50.960;6.830;2023-12-29T00:54:14;10.30;78.70
14733;DHT22;7457;50.960;6.830;2023-12-29T00:56:40;10.30;78.60
14733;DHT22;7457;50.960;6.830;2023-12-29T00:59:06;10.30;78.70
14733;DHT22;7457;50.960;6.830;2023-12-29T01:01:35;10.30;78.70
14733;DHT22;7457;50.960;6.830;2023-12-29T01:04:01;10.20;78.90
14733;DHT22;7457;50.960;6.830;2023-12-29T01:06:27;10.20;79.00
14733;DHT22;7457;50.960;6.830;2023-12-29T01:08:52;10.20;79.10
14733;DHT22;7457;50.960;6.830;2023-12-29T01:11:18;10.20;79.20
14733;DHT22;7457;50.960;6.830;2023-12-29T01:13:44;10.20;79.20
14733;DHT22;7457;50.960;6.830;2023-12-29T01:16:09;10.20;79.30
14733;DHT22;7457;50.960;6.830;2023-12-29T01:18:35;10.20;79.20
14733;DHT22;7457;50.960;6.830;2023-12-29T01:21:00;10.20;79.30
14733;DHT22;7457;50.960;6.830;2023-12-29T01:23:26;10.20;79.20
14733;DHT22;7457;50.960;6.830;2023-12-29T01:25:52;10.20;79.10
14733;DHT22;7457;50.960;6.830;2023-12-29T01:28:17;10.20;79.20
14733;DHT22;7457;50.960;6.830;2023-12-29T01:30:43;10.10;79.40
14733;DHT22;7457;50.960;6.830;2023-12-29T01:33:08;10.10;79.50
14733;DHT22;7457;50.960;6.830;2023-12-29T01:35:34;10.10;79.60
14733;DHT22;7457;50.960;6.830;2023-12-29T01:38:01;10.10;79.80
14733;DHT22;7457;50.960;6.830;2023-12-29T01:40:27;10.10;80.00
14733;DHT22;7457;50.960;6.830;2023-12-29T01:42:53;10.10;80.10
14733;DHT22;7457;50.960;6.830;2023-12-29T01:45:22;10.10;80.20
14733;DHT22;7457;50.960;6.830;2023-12-29T01:47:52;10.10;80.20
14733;DHT22;7457;50.960;6.830;2023-12-29T01:50:19;10.10;80.30
14733;DHT22;7457;50.960;6.830;2023-12-29T01:52:48;10.10;80.30
14733;DHT22;7457;50.960;6.830;2023-12-29T01:55:16;10.20;80.20
14733;DHT22;7457;50.960;6.830;2023-12-29T01:57:43;10.20;80.20
14733;DHT22;7457;50.960;6.830;2023-12-29T02:00:10;10.20;80.30
14733;DHT22;7457;50.960;6.830;2023-12-29T02:02:36;10.20;80.10
14733;DHT22;7457;50.960;6.830;2023-12-29T02:05:02;10.30;80.10
14733;DHT22;7457;50.960;6.830;2023-12-29T02:07:28;10.30;80.00
14733;DHT22;7457;50.960;6.830;2023-12-29T02:09:59;10.30;80.10
14733;DHT22;7457;50.960;6.830;2023-12-29T02:12:25;10.30;80.00
14733;DHT22;7457;50.960;6.830;2023-12-29T02:14:51;10.30;80.10
14733;DHT22;7457;50.960;6.830;2023-12-29T02:17:27;10.30;80.00
14733;DHT22;7457;50.960;6.830;2023-12-29T02:19:55;10.30;80.10
14733;DHT22;7457;50.960;6.830;2023-12-29T02:22:21;10.30;80.10
14733;DHT22;7457;50.960;6.830;2023-12-29T02:24:49;10.30;80.20
14733;DHT22;7457;50.960;6.830;2023-12-29T02:32:45;10.30;80.40
14733;DHT22;7457;50.960;6.830;2023-12-29T02:35:19;10.30;80.30
14733;DHT22;7457;50.960;6.830;2023-12-29T02:37:46;10.30;80.30
14733;DHT22;7457;50.960;6.830;2023-12-29T02:40:14;10.40;80.20
14733;DHT22;7457;50.960;6.830;2023-12-29T02:42:45;10.40;80.10
14733;DHT22;7457;50.960;6.830;2023-12-29T02:45:11;10.40;80.10
14733;DHT22;7457;50.960;6.830;2023-12-29T02:47:37;10.40;80.10
14733;DHT22;7457;50.960;6.830;2023-12-29T02:50:03;10.40;80.10
14733;DHT22;7457;50.960;6.830;2023-12-29T02:52:28;10.50;80.20
14733;DHT22;7457;50.960;6.830;2023-12-29T02:54:54;10.40;80.30
14733;DHT22;7457;50.960;6.830;2023-12-29T02:57:19;10.40;80.50
14733;DHT22;7457;50.960;6.830;2023-12-29T02:59:45;10.40;80.70
14733;DHT22;7457;50.960;6.830;2023-12-29T03:02:11;10.30;80.90
14733;DHT22;7457;50.960;6.830;2023-12-29T03:04:36;10.30;81.10
14733;DHT22;7457;50.960;6.830;2023-12-29T03:07:02;10.30;81.20
14733;DHT22;7457;50.960;6.830;2023-12-29T03:09:28;10.30;81.50
14733;DHT22;7457;50.960;6.830;2023-12-29T03:11:53;10.30;81.60
14733;DHT22;7457;50.960;6.830;2023-12-29T03:14:19;10.30;81.70
14733;DHT22;7457;50.960;6.830;2023-12-29T03:16:44;10.30;81.70
14733;DHT22;7457;50.960;6.830;2023-12-29T03:19:10;10.30;81.80
14733;DHT22;7457;50.960;6.830;2023-12-29T03:21:36;10.30;81.90
14733;DHT22;7457;50.960;6.830;2023-12-29T03:24:01;10.30;81.90
14733;DHT22;7457;50.960;6.830;2023-12-29T03:26:27;10.30;81.90
14733;DHT22;7457;50.960;6.830;2023-12-29T03:28:55;10.40;81.80
14733;DHT22;7457;50.960;6.830;2023-12-29T03:31:20;10.40;81.70
14733;DHT22;7457;50.960;6.830;2023-12-29T03:33:46;10.40;81.80
14733;DHT22;7457;50.960;6.830;2023-12-29T03:36:12;10.40;81.80
14733;DHT22;7457;50.960;6.830;2023-12-29T03:38:38;10.40;81.80
14733;DHT22;7457;50.960;6.830;2023-12-29T03:41:04;10.40;81.80
14733;DHT22;7457;50.960;6.830;2023-12-29T03:43:29;10.40;81.90
14733;DHT22;7457;50.960;6.830;2023-12-29T03:45:55;10.40;81.90
14733;DHT22;7457;50.960;6.830;2023-12-29T03:48:21;10.40;81.90
14733;DHT22;7457;50.960;6.830;2023-12-29T03:50:47;10.40;82.00
14733;DHT22;7457;50.960;6.830;2023-12-29T03:53:12;10.40;82.10
14733;DHT22;7457;50.960;6.830;2023-12-29T03:55:40;10.30;82.10
14733;DHT22;7457;50.960;6.830;2023-12-29T03:58:06;10.30;82.30
14733;DHT22;7457;50.960;6.830;2023-12-29T04:00:32;10.30;82.30
14733;DHT22;7457;50.960;6.830;2023-12-29T04:02:57;10.30;82.40
14733;DHT22;7457;50.960;6.830;2023-12-29T04:05:23;10.20;82.40
14733;DHT22;7457;50.960;6.830;2023-12-29T04:07:49;10.20;82.50
14733;DHT22;7457;50.960;6.830;2023-12-29T04:10:14;10.20;82.60
14733;DHT22;7457;50.960;6.830;2023-12-29T04:12:40;10.20;82.60
14733;DHT22;7457;50.960;6.830;2023-12-29T04:15:06;10.20;82.60
14733;DHT22;7457;50.960;6.830;2023-12-29T04:17:32;10.20;82.60
14733;DHT22;7457;50.960;6.830;2023-12-29T04:19:57;10.20;82.50
14733;DHT22;7457;50.960;6.830;2023-12-29T04:22:23;10.30;82.50
14733;DHT22;7457;50.960;6.830;2023-12-29T04:24:48;10.30;82.60
14733;DHT22;7457;50.960;6.830;2023-12-29T04:27:15;10.30;82.60
14733;DHT22;7457;50.960;6.830;2023-12-29T04:29:40;10.30;82.60
14733;DHT22;7457;50.960;6.830;2023-12-29T04:32:06;10.30;82.70
14733;DHT22;7457;50.960;6.830;2023-12-29T04:34:31;10.20;82.80
14733;DHT22;7457;50.960;6.830;2023-12-29T04:36:57;10.20;83.00
14733;DHT22;7457;50.960;6.830;2023-12-29T04:39:23;10.20;83.10
14733;DHT22;7457;50.960;6.830;2023-12-29T04:41:50;10.20;83.30
14733;DHT22;7457;50.960;6.830;2023-12-29T04:44:15;10.20;83.30
14733;DHT22;7457;50.960;6.830;2023-12-29T04:46:41;10.30;83.20
14733;DHT22;7457;50.960;6.830;2023-12-29T04:49:07;10.30;83.20
14733;DHT22;7457;50.960;6.830;2023-12-29T04:51:34;10.40;83.00
14733;DHT22;7457;50.960;6.830;2023-12-29T04:53:59;10.40;83.00
14733;DHT22;7457;50.960;6.830;2023-12-29T04:56:25;10.40;83.10
14733;DHT22;7457;50.960;6.830;2023-12-29T04:58:51;10.40;83.10
14733;DHT22;7457;50.960;6.830;2023-12-29T05:01:17;10.40;83.10
14733;DHT22;7457;50.960;6.830;2023-12-29T05:03:43;10.40;83.20
14733;DHT22;7457;50.960;6.830;2023-12-29T05:06:08;10.40;83.20
14733;DHT22;7457;50.960;6.830;2023-12-29T05:08:34;10.30;83.20
14733;DHT22;7457;50.960;6.830;2023-12-29T05:11:00;10.30;83.20
14733;DHT22;7457;50.960;6.830;2023-12-29T05:13:26;10.30;83.20
14733;DHT22;7457;50.960;6.830;2023-12-29T05:15:51;10.30;83.40
14733;DHT22;7457;50.960;6.830;2023-12-29T05:18:17;10.20;83.40
14733;DHT22;7457;50.960;6.830;2023-12-29T05:20:43;10.10;83.60
14733;DHT22;7457;50.960;6.830;2023-12-29T05:23:08;10.10;83.70
14733;DHT22;7457;50.960;6.830;2023-12-29T05:25:34;10.10;83.70
14733;DHT22;7457;50.960;6.830;2023-12-29T05:28:00;10.10;83.70
14733;DHT22;7457;50.960;6.830;2023-12-29T05:30:25;10.00;83.70
14733;DHT22;7457;50.960;6.830;2023-12-29T05:32:53;10.00;83.70
14733;DHT22;7457;50.960;6.830;2023-12-29T05:35:18;10.00;83.90
14733;DHT22;7457;50.960;6.830;2023-12-29T05:37:44;9.90;83.90
14733;DHT22;7457;50.960;6.830;2023-12-29T05:40:10;9.90;84.10
14733;DHT22;7457;50.960;6.830;2023-12-29T05:42:36;9.90;84.20
14733;DHT22;7457;50.960;6.830;2023-12-29T05:45:02;9.90;84.20
14733;DHT22;7457;50.960;6.830;2023-12-29T05:47:27;9.80;84.40
14733;DHT22;7457;50.960;6.830;2023-12-29T05:49:53;9.80;84.60
14733;DHT22;7457;50.960;6.830;2023-12-29T05:52:19;9.80;84.50
14733;DHT22;7457;50.960;6.830;2023-12-29T05:54:44;9.70;84.60
14733;DHT22;7457;50.960;6.830;2023-12-29T05:57:10;9.70;84.70
14733;DHT22;7457;50.960;6.830;2023-12-29T05:59:36;9.70;84.70
14733;DHT22;7457;50.960;6.830;2023-12-29T06:02:02;9.70;84.80
14733;DHT22;7457;50.960;6.830;2023-12-29T06:04:28;9.70;84.90
14733;DHT22;7457;50.960;6.830;2023-12-29T06:06:53;9.70;85.00
14733;DHT22;7457;50.960;6.830;2023-12-29T06:09:19;9.60;85.10
14733;DHT22;7457;50.960;6.830;2023-12-29T06:11:45;9.60;85.20
14733;DHT22;7457;50.960;6.830;2023-12-29T06:14:10;9.60;85.30
14733;DHT22;7457;50.960;6.830;2023-12-29T06:16:36;9.60;85.40
14733;DHT22;7457;50.960;6.830;2023-12-29T06:19:02;9.60;85.40
14733;DHT22;7457;50.960;6.830;2023-12-29T06:21:27;9.60;85.50
14733;DHT22;7457;50.960;6.830;2023-12-29T06:23:53;9.60;85.40
14733;DHT22;7457;50.960;6.830;2023-12-29T06:26:20;9.60;85.30
14733;DHT22;7457;50.960;6.830;2023-12-29T06:28:46;9.70;85.00
14733;DHT22;7457;50.960;6.830;2023-12-29T06:31:13;9.70;85.00
14733;DHT22;7457;50.960;6.830;2023-12-29T06:33:42;9.70;84.80
14733;DHT22;7457;50.960;6.830;2023-12-29T06:36:08;9.70;84.80
14733;DHT22;7457;50.960;6.830;2023-12-29T06:38:34;9.70;84.80
14733;DHT22;7457;50.960;6.830;2023-12-29T06:41:04;9.70;84.80
14733;DHT22;7457;50.960;6.830;2023-12-29T06:43:30;9.70;84.80
14733;DHT22;7457;50.960;6.830;2023-12-29T06:45:56;9.70;84.70
14733;DHT22;7457;50.960;6.830;2023-12-29T06:48:22;9.70;84.80
14733;DHT22;7457;50.960;6.830;2023-12-29T06:50:47;9.70;84.80
14733;DHT22;7457;50.960;6.830;2023-12-29T06:53:13;9.70;84.80
14733;DHT22;7457;50.960;6.830;2023-12-29T06:55:39;9.70;84.80
14733;DHT22;7457;50.960;6.830;2023-12-29T06:58:04;9.70;84.80
14733;DHT22;7457;50.960;6.830;2023-12-29T07:00:30;9.70;84.80
14733;DHT22;7457;50.960;6.830;2023-12-29T07:02:56;9.70;84.80
14733;DHT22;7457;50.960;6.830;2023-12-29T07:05:22;9.70;84.80
14733;DHT22;7457;50.960;6.830;2023-12-29T07:07:47;9.70;84.80
14733;DHT22;7457;50.960;6.830;2023-12-29T07:10:13;9.70;84.70
14733;DHT22;7457;50.960;6.830;2023-12-29T07:12:40;9.70;84.60
14733;DHT22;7457;50.960;6.830;2023-12-29T07:15:06;9.80;84.60
14733;DHT22;7457;50.960;6.830;2023-12-29T07:17:32;9.80;84.50
14733;DHT22;7457;50.960;6.830;2023-12-29T07:19:58;9.80;84.50
14733;DHT22;7457;50.960;6.830;2023-12-29T07:22:23;9.80;84.60
14733;DHT22;7457;50.960;6.830;2023-12-29T07:24:49;9.70;84.60
14733;DHT22;7457;50.960;6.830;2023-12-29T07:27:15;9.70;84.70
14733;DHT22;7457;50.960;6.830;2023-12-29T07:29:41;9.70;84.80
14733;DHT22;7457;50.960;6.830;2023-12-29T07:32:06;9.70;84.90
14733;DHT22;7457;50.960;6.830;2023-12-29T07:34:32;9.70;84.90
14733;DHT22;7457;50.960;6.830;2023-12-29T07:36:58;9.70;84.90
14733;DHT22;7457;50.960;6.830;2023-12-29T07:39:24;9.70;85.00
14733;DHT22;7457;50.960;6.830;2023-12-29T07:41:50;9.60;85.20
14733;DHT22;7457;50.960;6.830;2023-12-29T07:44:19;9.70;85.40
14733;DHT22;7457;50.960;6.830;2023-12-29T07:46:45;9.70;85.40
14733;DHT22;7457;50.960;6.830;2023-12-29T07:49:10;9.80;85.40
14733;DHT22;7457;50.960;6.830;2023-12-29T07:51:40;9.80;85.40
14733;DHT22;7457;50.960;6.830;2023-12-29T07:54:07;9.80;85.60
14733;DHT22;7457;50.960;6.830;2023-12-29T07:56:33;9.90;85.80
14733;DHT22;7457;50.960;6.830;2023-12-29T07:58:59;9.80;86.00
14733;DHT22;7457;50.960;6.830;2023-12-29T08:01:24;9.80;86.40
14733;DHT22;7457;50.960;6.830;2023-12-29T08:03:51;9.80;86.90
14733;DHT22;7457;50.960;6.830;2023-12-29T08:06:16;9.70;87.40
14733;DHT22;7457;50.960;6.830;2023-12-29T08:08:42;9.70;87.80
14733;DHT22;7457;50.960;6.830;2023-12-29T08:11:17;9.60;88.20
14733;DHT22;7457;50.960;6.830;2023-12-29T08:13:44;9.60;89.10
14733;DHT22;7457;50.960;6.830;2023-12-29T08:16:10;9.50;89.20
14733;DHT22;7457;50.960;6.830;2023-12-29T08:18:36;9.50;89.60
14733;DHT22;7457;50.960;6.830;2023-12-29T08:21:02;9.40;90.70
14733;DHT22;7457;50.960;6.830;2023-12-29T08:23:27;9.30;91.50
14733;DHT22;7457;50.960;6.830;2023-12-29T08:25:53;9.20;92.00
14733;DHT22;7457;50.960;6.830;2023-12-29T08:28:19;9.20;93.00
14733;DHT22;7457;50.960;6.830;2023-12-29T08:30:44;9.10;93.90
14733;DHT22;7457;50.960;6.830;2023-12-29T08:33:13;9.10;94.60
14733;DHT22;7457;50.960;6.830;2023-12-29T08:35:44;9.00;95.60
14733;DHT22;7457;50.960;6.830;2023-12-29T08:38:11;9.00;95.90
14733;DHT22;7457;50.960;6.830;2023-12-29T08:40:37;9.10;96.20
14733;DHT22;7457;50.960;6.830;2023-12-29T08:43:03;9.10;96.40
14733;DHT22;7457;50.960;6.830;2023-12-29T08:45:29;9.00;97.00
14733;DHT22;7457;50.960;6.830;2023-12-29T08:47:54;9.10;97.30
14733;DHT22;7457;50.960;6.830;2023-12-29T08:50:20;9.10;97.50
14733;DHT22;7457;50.960;6.830;2023-12-29T08:52:47;9.10;98.00
14733;DHT22;7457;50.960;6.830;2023-12-29T08:55:12;9.10;98.00
14733;DHT22;7457;50.960;6.830;2023-12-29T08:57:38;9.10;98.20
14733;DHT22;7457;50.960;6.830;2023-12-29T09:00:04;9.10;98.50
14733;DHT22;7457;50.960;6.830;2023-12-29T09:02:34;9.10;98.60
14733;DHT22;7457;50.960;6.830;2023-12-29T09:05:00;9.10;99.10
14733;DHT22;7457;50.960;6.830;2023-12-29T09:07:26;9.10;99.10
14733;DHT22;7457;50.960;6.830;2023-12-29T09:09:53;9.10;99.20
14733;DHT22;7457;50.960;6.830;2023-12-29T09:12:19;9.10;99.10
14733;DHT22;7457;50.960;6.830;2023-12-29T09:14:44;9.10;99.40
14733;DHT22;7457;50.960;6.830;2023-12-29T09:17:10;9.20;99.40
14733;DHT22;7457;50.960;6.830;2023-12-29T09:19:36;9.20;99.50
14733;DHT22;7457;50.960;6.830;2023-12-29T09:22:02;9.10;99.90
14733;DHT22;7457;50.960;6.830;2023-12-29T09:24:28;9.10;100.00
14733;DHT22;7457;50.960;6.830;2023-12-29T09:26:54;9.10;100.00
14733;DHT22;7457;50.960;6.830;2023-12-29T09:29:20;9.10;100.00
14733;DHT22;7457;50.960;6.830;2023-12-29T09:31:45;9.10;100.00
14733;DHT22;7457;50.960;6.830;2023-12-29T09:34:11;9.10;100.00
14733;DHT22;7457;50.960;6.830;2023-12-29T09:36:36;9.10;100.00
14733;DHT22;7457;50.960;6.830;2023-12-29T09:39:02;9.20;100.00
14733;DHT22;7457;50.960;6.830;2023-12-29T09:41:31;9.20;100.00
14733;DHT22;7457;50.960;6.830;2023-12-29T09:43:58;9.30;100.00
14733;DHT22;7457;50.960;6.830;2023-12-29T09:46:24;9.30;100.00
14733;DHT22;7457;50.960;6.830;2023-12-29T09:48:52;9.30;100.00
14733;DHT22;7457;50.960;6.830;2023-12-29T09:51:23;9.40;100.00
14733;DHT22;7457;50.960;6.830;2023-12-29T09:53:51;9.40;100.00
14733;DHT22;7457;50.960;6.830;2023-12-29T09:56:17;9.50;100.00
14733;DHT22;7457;50.960;6.830;2023-12-29T09:58:47;9.50;100.00
14733;DHT22;7457;50.960;6.830;2023-12-29T10:01:14;9.60;100.00
14733;DHT22;7457;50.960;6.830;2023-12-29T10:03:40;9.60;100.00
14733;DHT22;7457;50.960;6.830;2023-12-29T10:06:06;9.70;100.00
14733;DHT22;7457;50.960;6.830;2023-12-29T10:08:34;9.80;100.00
14733;DHT22;7457;50.960;6.830;2023-12-29T10:11:00;9.80;100.00
14733;DHT22;7457;50.960;6.830;2023-12-29T10:13:29;9.90;100.00
14733;DHT22;7457;50.960;6.830;2023-12-29T10:16:07;9.90;99.70
14733;DHT22;7457;50.960;6.830;2023-12-29T10:21:29;10.00;99.00
14733;DHT22;7457;50.960;6.830;2023-12-29T10:24:03;10.10;99.60
14733;DHT22;7457;50.960;6.830;2023-12-29T10:26:29;10.20;98.80
14733;DHT22;7457;50.960;6.830;2023-12-29T10:28:55;10.40;99.50
14733;DHT22;7457;50.960;6.830;2023-12-29T10:31:23;10.50;98.00
14733;DHT22;7457;50.960;6.830;2023-12-29T10:33:48;10.60;97.40
14733;DHT22;7457;50.960;6.830;2023-12-29T10:36:17;10.60;96.60
14733;DHT22;7457;50.960;6.830;2023-12-29T10:38:43;10.60;96.00
14733;DHT22;7457;50.960;6.830;2023-12-29T10:41:16;10.70;95.50
14733;DHT22;7457;50.960;6.830;2023-12-29T10:43:43;10.60;95.40
14733;DHT22;7457;50.960;6.830;2023-12-29T10:46:10;10.60;95.50
14733;DHT22;7457;50.960;6.830;2023-12-29T10:48:37;10.60;95.10
14733;DHT22;7457;50.960;6.830;2023-12-29T10:51:04;10.60;95.00
14733;DHT22;7457;50.960;6.830;2023-12-29T10:53:31;10.60;94.70
14733;DHT22;7457;50.960;6.830;2023-12-29T10:55:57;10.60;94.90
14733;DHT22;7457;50.960;6.830;2023-12-29T10:58:25;10.70;95.10
14733;DHT22;7457;50.960;6.830;2023-12-29T11:00:53;10.70;94.90
14733;DHT22;7457;50.960;6.830;2023-12-29T11:03:19;10.70;94.60
14733;DHT22;7457;50.960;6.830;2023-12-29T11:05:45;10.80;94.30
14733;DHT22;7457;50.960;6.830;2023-12-29T11:08:20;10.80;93.60
14733;DHT22;7457;50.960;6.830;2023-12-29T11:10:50;10.80;93.60
14733;DHT22;7457;50.960;6.830;2023-12-29T11:13:16;10.80;93.80
14733;DHT22;7457;50.960;6.830;2023-12-29T11:15:43;10.90;93.90
14733;DHT22;7457;50.960;6.830;2023-12-29T11:18:16;10.90;94.40
14733;DHT22;7457;50.960;6.830;2023-12-29T11:20:45;11.00;94.20
14733;DHT22;7457;50.960;6.830;2023-12-29T11:23:12;11.20;94.00
14733;DHT22;7457;50.960;6.830;2023-12-29T11:25:43;11.30;92.90
14733;DHT22;7457;50.960;6.830;2023-12-29T11:28:10;11.30;92.70
14733;DHT22;7457;50.960;6.830;2023-12-29T11:30:39;11.40;93.00
14733;DHT22;7457;50.960;6.830;2023-12-29T11:36:12;11.50;91.80
14733;DHT22;7457;50.960;6.830;2023-12-29T11:41:44;11.60;91.20
14733;DHT22;7457;50.960;6.830;2023-12-29T11:44:12;11.60;90.60
14733;DHT22;7457;50.960;6.830;2023-12-29T11:46:39;11.60;90.80
14733;DHT22;7457;50.960;6.830;2023-12-29T11:49:08;11.70;90.60
14733;DHT22;7457;50.960;6.830;2023-12-29T11:51:35;11.70;90.00
14733;DHT22;7457;50.960;6.830;2023-12-29T11:54:02;11.70;89.30
14733;DHT22;7457;50.960;6.830;2023-12-29T11:56:38;11.70;88.70
14733;DHT22;7457;50.960;6.830;2023-12-29T11:59:16;11.60;88.30
14733;DHT22;7457;50.960;6.830;2023-12-29T12:01:43;11.60;88.50
14733;DHT22;7457;50.960;6.830;2023-12-29T12:04:40;11.50;88.70
14733;DHT22;7457;50.960;6.830;2023-12-29T12:09:38;11.50;89.20
14733;DHT22;7457;50.960;6.830;2023-12-29T12:12:05;11.50;89.20
14733;DHT22;7457;50.960;6.830;2023-12-29T12:14:52;11.60;89.10
14733;DHT22;7457;50.960;6.830;2023-12-29T12:17:31;11.60;88.40
14733;DHT22;7457;50.960;6.830;2023-12-29T12:19:59;11.50;88.20
14733;DHT22;7457;50.960;6.830;2023-12-29T12:22:30;11.40;88.30
14733;DHT22;7457;50.960;6.830;2023-12-29T12:24:57;11.40;88.60
14733;DHT22;7457;50.960;6.830;2023-12-29T12:27:24;11.40;88.60
14733;DHT22;7457;50.960;6.830;2023-12-29T12:29:55;11.40;88.70
14733;DHT22;7457;50.960;6.830;2023-12-29T12:32:23;11.40;88.90
14733;DHT22;7457;50.960;6.830;2023-12-29T12:34:49;11.40;89.00
14733;DHT22;7457;50.960;6.830;2023-12-29T12:37:22;11.40;88.90
14733;DHT22;7457;50.960;6.830;2023-12-29T12:39:48;11.40;88.80
14733;DHT22;7457;50.960;6.830;2023-12-29T12:42:16;11.40;88.60
14733;DHT22;7457;50.960;6.830;2023-12-29T12:44:56;11.30;88.40
14733;DHT22;7457;50.960;6.830;2023-12-29T12:47:34;11.30;88.70
14733;DHT22;7457;50.960;6.830;2023-12-29T12:50:00;11.30;88.90
14733;DHT22;7457;50.960;6.830;2023-12-29T12:52:31;11.30;88.90
14733;DHT22;7457;50.960;6.830;2023-12-29T12:54:57;11.30;88.90
14733;DHT22;7457;50.960;6.830;2023-12-29T12:57:23;11.30;89.30
14733;DHT22;7457;50.960;6.830;2023-12-29T12:59:50;11.30;89.50
14733;DHT22;7457;50.960;6.830;2023-12-29T13:02:18;11.30;89.60
14733;DHT22;7457;50.960;6.830;2023-12-29T13:04:45;11.30;89.50
14733;DHT22;7457;50.960;6.830;2023-12-29T13:07:15;11.30;89.20
14733;DHT22;7457;50.960;6.830;2023-12-29T13:09:41;11.30;89.00
14733;DHT22;7457;50.960;6.830;2023-12-29T13:12:10;11.20;89.20
14733;DHT22;7457;50.960;6.830;2023-12-29T13:14:36;11.20;89.10
14733;DHT22;7457;50.960;6.830;2023-12-29T13:17:06;11.20;89.30
14733;DHT22;7457;50.960;6.830;2023-12-29T13:19:31;11.20;89.20
14733;DHT22;7457;50.960;6.830;2023-12-29T13:21:59;11.10;89.20
14733;DHT22;7457;50.960;6.830;2023-12-29T13:24:26;11.10;89.60
14733;DHT22;7457;50.960;6.830;2023-12-29T13:26:55;11.10;89.90
14733;DHT22;7457;50.960;6.830;2023-12-29T13:29:23;11.10;89.70
14733;DHT22;7457;50.960;6.830;2023-12-29T13:31:53;11.10;89.60
14733;DHT22;7457;50.960;6.830;2023-12-29T13:34:33;11.00;89.70
14733;DHT22;7457;50.960;6.830;2023-12-29T13:37:10;11.00;90.10
14733;DHT22;7457;50.960;6.830;2023-12-29T13:42:37;11.10;89.90
14733;DHT22;7457;50.960;6.830;2023-12-29T13:45:05;11.10;89.70
14733;DHT22;7457;50.960;6.830;2023-12-29T13:47:34;11.10;89.60
14733;DHT22;7457;50.960;6.830;2023-12-29T13:50:00;11.10;89.60
14733;DHT22;7457;50.960;6.830;2023-12-29T13:52:26;11.10;89.50
14733;DHT22;7457;50.960;6.830;2023-12-29T13:54:52;11.00;89.70
14733;DHT22;7457;50.960;6.830;2023-12-29T13:57:18;11.00;89.60
14733;DHT22;7457;50.960;6.830;2023-12-29T13:59:45;11.00;89.90
14733;DHT22;7457;50.960;6.830;2023-12-29T14:02:32;10.90;90.40
14733;DHT22;7457;50.960;6.830;2023-12-29T14:07:48;10.70;91.90
14733;DHT22;7457;50.960;6.830;2023-12-29T14:10:18;10.50;93.10
14733;DHT22;7457;50.960;6.830;2023-12-29T14:12:43;10.30;93.90
14733;DHT22;7457;50.960;6.830;2023-12-29T14:15:09;10.20;95.00
14733;DHT22;7457;50.960;6.830;2023-12-29T14:17:36;10.10;96.00
14733;DHT22;7457;50.960;6.830;2023-12-29T14:20:04;10.00;96.70
14733;DHT22;7457;50.960;6.830;2023-12-29T14:22:35;9.90;97.40
14733;DHT22;7457;50.960;6.830;2023-12-29T14:25:05;9.90;97.70
14733;DHT22;7457;50.960;6.830;2023-12-29T14:27:31;9.80;98.40
14733;DHT22;7457;50.960;6.830;2023-12-29T14:29:57;9.80;98.80
14733;DHT22;7457;50.960;6.830;2023-12-29T14:32:24;9.70;99.10
14733;DHT22;7457;50.960;6.830;2023-12-29T14:34:50;9.70;99.40
14733;DHT22;7457;50.960;6.830;2023-12-29T14:37:21;9.60;99.80
14733;DHT22;7457;50.960;6.830;2023-12-29T14:39:50;9.60;100.00
14733;DHT22;7457;50.960;6.830;2023-12-29T14:42:17;9.60;100.00
14733;DHT22;7457;50.960;6.830;2023-12-29T14:44:46;9.60;100.00
14733;DHT22;7457;50.960;6.830;2023-12-29T14:47:13;9.70;100.00
14733;DHT22;7457;50.960;6.830;2023-12-29T14:49:39;9.70;100.00
14733;DHT22;7457;50.960;6.830;2023-12-29T14:52:04;9.70;100.00
14733;DHT22;7457;50.960;6.830;2023-12-29T14:54:30;9.70;100.00
14733;DHT22;7457;50.960;6.830;2023-12-29T14:56:56;9.70;100.00
14733;DHT22;7457;50.960;6.830;2023-12-29T14:59:21;9.70;100.00
14733;DHT22;7457;50.960;6.830;2023-12-29T15:01:47;9.80;100.00
14733;DHT22;7457;50.960;6.830;2023-12-29T15:04:13;9.80;100.00
14733;DHT22;7457;50.960;6.830;2023-12-29T15:06:40;9.80;100.00
14733;DHT22;7457;50.960;6.830;2023-12-29T15:09:06;9.90;99.90
14733;DHT22;7457;50.960;6.830;2023-12-29T15:11:33;9.90;99.50
14733;DHT22;7457;50.960;6.830;2023-12-29T15:13:59;10.00;99.10
14733;DHT22;7457;50.960;6.830;2023-12-29T15:16:24;10.00;98.70
14733;DHT22;7457;50.960;6.830;2023-12-29T15:18:50;10.10;98.30
14733;DHT22;7457;50.960;6.830;2023-12-29T15:21:15;10.10;98.00
14733;DHT22;7457;50.960;6.830;2023-12-29T15:23:41;10.10;97.60
14733;DHT22;7457;50.960;6.830;2023-12-29T15:26:07;10.10;97.20
14733;DHT22;7457;50.960;6.830;2023-12-29T15:28:32;10.20;96.90
14733;DHT22;7457;50.960;6.830;2023-12-29T15:30:58;10.20;96.70
14733;DHT22;7457;50.960;6.830;2023-12-29T15:33:23;10.20;96.40
14733;DHT22;7457;50.960;6.830;2023-12-29T15:35:50;10.20;96.50
14733;DHT22;7457;50.960;6.830;2023-12-29T15:38:16;10.20;96.60
14733;DHT22;7457;50.960;6.830;2023-12-29T15:40:42;10.10;96.60
14733;DHT22;7457;50.960;6.830;2023-12-29T15:43:08;10.10;96.80
14733;DHT22;7457;50.960;6.830;2023-12-29T15:45:33;10.00;97.00
14733;DHT22;7457;50.960;6.830;2023-12-29T15:48:00;10.00;97.20
14733;DHT22;7457;50.960;6.830;2023-12-29T15:50:25;10.00;97.40
14733;DHT22;7457;50.960;6.830;2023-12-29T15:52:51;10.00;97.60
14733;DHT22;7457;50.960;6.830;2023-12-29T15:55:17;10.00;97.70
14733;DHT22;7457;50.960;6.830;2023-12-29T15:57:43;10.00;97.70
14733;DHT22;7457;50.960;6.830;2023-12-29T16:00:09;10.00;97.80
14733;DHT22;7457;50.960;6.830;2023-12-29T16:02:36;10.00;97.90
14733;DHT22;7457;50.960;6.830;2023-12-29T16:05:01;10.00;97.90
14733;DHT22;7457;50.960;6.830;2023-12-29T16:07:27;10.00;98.00
14733;DHT22;7457;50.960;6.830;2023-12-29T16:09:53;10.00;98.00